Time;durP1;ratioP1;P1;durP2;ratioP2;P2;SDS_P1;SDS_P2;PMS_P1;PMS_P2;Temp;Humidity;BMP_temperature;BMP_pressure;BME280_temperature;BME280_humidity;BME280_pressure;Samples;Min_cycle;Max_cycle;Signal;HPM_P1;HPM_P2
2022/06/10 00:00:55;;;;;;;6.43;4.38;;;;;;;20.25;74.93;98812.22;3135867;28;20045;-65
2022/06/10 00:02:26;;;;;;;6.95;4.40;;;;;;;20.25;74.73;98806.13;3139957;28;20591;-65
2022/06/10 00:03:58;;;;;;;6.80;4.20;;;;;;;20.26;74.54;98808.63;3140193;28;20451;-65
2022/06/10 00:05:31;;;;;;;10.77;4.68;;;;;;;20.22;74.69;98815.19;3139487;28;20056;-65
2022/06/10 00:07:03;;;;;;;7.22;5.00;;;;;;;20.23;74.76;98815.03;3138531;28;20040;-65
2022/06/10 00:08:40;;;;;;;7.13;4.68;;;;;;;20.25;74.83;98811.41;3139762;28;20052;-64
2022/06/10 00:10:14;;;;;;;8.55;5.05;;;;;;;20.21;74.93;98808.25;3140062;28;20075;-64
2022/06/10 00:11:46;;;;;;;7.10;4.72;;;;;;;20.18;75.41;98805.91;3139826;28;20114;-65
2022/06/10 00:13:19;;;;;;;6.97;4.90;;;;;;;20.17;75.41;98813.00;3139964;28;20110;-65
2022/06/10 00:14:51;;;;;;;9.20;4.80;;;;;;;20.13;75.58;98814.28;3140137;28;20524;-65
2022/06/10 00:16:23;;;;;;;8.52;5.25;;;;;;;20.10;75.99;98816.41;3139755;28;20048;-65
2022/06/10 00:17:55;;;;;;;11.32;5.88;;;;;;;20.04;76.13;98809.94;3140156;28;20048;-65
2022/06/10 00:19:27;;;;;;;6.75;5.55;;;;;;;20.02;76.07;98808.41;3140103;28;20060;-65
2022/06/10 00:20:59;;;;;;;7.18;5.35;;;;;;;20.02;75.84;98816.34;3139710;28;20055;-64
2022/06/10 00:22:31;;;;;;;6.57;5.47;;;;;;;19.99;75.30;98820.13;3139984;28;20056;-64
2022/06/10 00:24:05;;;;;;;8.95;6.25;;;;;;;19.96;75.31;98829.19;3139866;28;20052;-64
2022/06/10 00:25:37;;;;;;;8.82;6.35;;;;;;;19.98;75.26;98835.16;3139886;28;20468;-64
2022/06/10 00:27:09;;;;;;;10.25;6.18;;;;;;;19.99;74.83;98842.13;3136742;28;20059;-64
2022/06/10 00:28:43;;;;;;;8.82;6.30;;;;;;;20.01;74.62;98836.66;3139794;28;20095;-64
2022/06/10 00:30:17;;;;;;;11.25;7.47;;;;;;;20.03;74.38;98839.16;3139208;28;20048;-65
2022/06/10 00:31:49;;;;;;;11.75;6.78;;;;;;;20.02;74.67;98833.03;3144317;28;20082;-64
2022/06/10 00:33:21;;;;;;;8.43;6.78;;;;;;;20.01;74.72;98831.38;3139626;28;20048;-65
2022/06/10 00:34:53;;;;;;;10.15;5.75;;;;;;;20.01;74.85;98823.44;3139767;28;20175;-64
2022/06/10 00:36:25;;;;;;;9.93;5.15;;;;;;;20.03;74.80;98833.88;3139662;28;20540;-64
2022/06/10 00:37:57;;;;;;;7.78;5.20;;;;;;;20.02;74.86;98814.53;3139965;28;20052;-64
2022/06/10 00:39:29;;;;;;;7.63;5.72;;;;;;;20.07;75.11;98822.00;3139710;28;20129;-64
2022/06/10 00:41:01;;;;;;;10.23;7.30;;;;;;;20.06;75.23;98823.81;3139552;28;20142;-65
2022/06/10 00:42:35;;;;;;;8.57;7.32;;;;;;;19.90;75.46;98813.13;3139858;28;20505;-64
2022/06/10 00:44:32;;;;;;;9.25;7.72;;;;;;;19.95;75.54;98826.72;3139655;28;20076;-64
2022/06/10 00:46:21;;;;;;;10.40;7.10;;;;;;;19.92;75.32;98827.84;3137149;28;20521;-64
2022/06/10 00:47:52;;;;;;;9.05;7.38;;;;;;;19.88;75.68;98828.31;3139470;28;20048;-64
2022/06/10 00:49:25;;;;;;;13.10;7.82;;;;;;;19.86;75.95;98825.81;3139884;28;20472;-64
2022/06/10 00:50:57;;;;;;;9.35;7.00;;;;;;;19.83;76.00;98833.22;3139903;28;20056;-64
2022/06/10 00:52:32;;;;;;;9.80;7.40;;;;;;;19.81;76.16;98820.16;3139696;28;20052;-64
2022/06/10 00:54:10;;;;;;;11.07;7.22;;;;;;;19.77;76.51;98816.16;3139890;28;20052;-64
2022/06/10 00:55:45;;;;;;;11.95;7.03;;;;;;;19.64;76.83;98810.38;3139584;28;20126;-65
2022/06/10 00:57:20;;;;;;;11.38;7.60;;;;;;;19.64;76.88;98818.31;3139568;28;20106;-64
2022/06/10 00:58:58;;;;;;;9.88;7.93;;;;;;;19.56;77.37;98811.16;3139717;28;20438;-64
2022/06/10 01:00:29;;;;;;;9.38;8.25;;;;;;;19.47;77.45;98802.31;3137378;28;20465;-65
2022/06/10 01:02:05;;;;;;;12.48;9.15;;;;;;;19.36;77.54;98796.44;3139593;28;20608;-65
2022/06/10 01:03:37;;;;;;;9.60;8.57;;;;;;;19.31;77.76;98795.06;3139580;28;20106;-64
2022/06/10 01:05:12;;;;;;;13.32;9.48;;;;;;;19.23;78.03;98795.00;3139766;28;20048;-65
2022/06/10 01:06:44;;;;;;;14.70;10.98;;;;;;;19.16;78.27;98799.19;3139455;28;20117;-64
2022/06/10 01:08:19;;;;;;;21.52;16.13;;;;;;;19.13;78.51;98799.47;3139525;28;20052;-64
2022/06/10 01:09:52;;;;;;;24.55;18.70;;;;;;;19.09;78.76;98803.41;3139843;28;20543;-64
2022/06/10 01:11:32;;;;;;;;;;;;;;;19.01;78.83;98806.75;3137092;28;20110;-65
2022/06/10 01:13:17;;;;;;;20.45;15.18;;;;;;;19.02;78.88;98803.16;3137002;28;19924;-65
2022/06/10 01:15:04;;;;;;;18.20;15.43;;;;;;;18.99;78.85;98808.75;3140666;28;20049;-65
2022/06/10 01:16:44;;;;;;;15.45;12.77;;;;;;;19.04;78.67;98814.38;3138609;28;20441;-63
2022/06/10 01:18:45;;;;;;;19.67;14.55;;;;;;;19.09;78.32;98821.88;3139582;28;20092;-64
2022/06/10 01:20:27;;;;;;;15.63;12.90;;;;;;;19.12;78.24;98818.13;3135459;28;20520;-64
2022/06/10 01:22:43;;;;;;;18.58;14.32;;;;;;;19.13;78.24;98817.94;3136400;28;20521;-64
2022/06/10 01:24:36;;;;;;;21.45;13.15;;;;;;;19.11;78.14;98817.28;3120207;28;20056;-65
2022/06/10 01:27:47;;;;;;;15.77;12.55;;;;;;;19.17;77.83;98819.34;3130858;28;20053;-64
2022/06/10 01:28:46;;;;;;;14.93;12.88;;;;;;;19.22;77.69;98824.97;3139088;28;20055;-64
2022/06/10 01:30:40;;;;;;;15.55;13.85;;;;;;;19.26;77.41;98829.00;3137549;28;20057;-64
2022/06/10 01:32:21;;;;;;;17.93;14.10;;;;;;;19.29;77.27;98830.50;3139560;28;20064;-64
2022/06/10 01:34:07;;;;;;;20.95;15.30;;;;;;;19.31;77.10;98823.25;3132964;28;20565;-64
2022/06/10 01:35:44;;;;;;;20.60;17.10;;;;;;;19.33;77.06;98830.06;3136497;28;20135;-64
2022/06/10 01:37:20;;;;;;;25.60;18.40;;;;;;;19.36;77.11;98833.38;3139512;28;20048;-64
2022/06/10 01:39:03;;;;;;;26.60;18.75;;;;;;;19.37;76.95;98842.94;3133383;28;20190;-65
2022/06/10 01:40:43;;;;;;;29.65;19.42;;;;;;;19.36;76.71;98836.03;3139624;28;20056;-64
2022/06/10 01:42:32;;;;;;;23.02;17.55;;;;;;;19.34;76.57;98841.44;3136971;28;20048;-64
2022/06/10 01:44:13;;;;;;;21.02;14.77;;;;;;;19.35;77.29;98844.94;3138716;28;20578;-64
2022/06/10 01:45:51;;;;;;;16.02;10.10;;;;;;;19.36;77.35;98841.31;3139462;28;20138;-65
2022/06/10 01:47:27;;;;;;;19.70;11.27;;;;;;;19.39;77.62;98839.19;3139241;28;20044;-65
2022/06/10 01:49:08;;;;;;;13.57;10.65;;;;;;;19.36;77.50;98828.94;3139108;28;20044;-64
2022/06/10 01:50:46;;;;;;;13.13;9.18;;;;;;;19.42;77.80;98835.44;3139297;28;20052;-65
2022/06/10 01:52:23;;;;;;;13.80;8.82;;;;;;;19.46;77.89;98834.13;3139517;28;20141;-65
2022/06/10 01:54:01;;;;;;;11.15;8.10;;;;;;;19.48;77.63;98837.47;3139615;28;20045;-65
2022/06/10 01:55:39;;;;;;;13.18;8.05;;;;;;;19.49;77.48;98836.47;3139261;28;20052;-65
2022/06/10 01:57:23;;;;;;;13.52;10.20;;;;;;;19.49;77.53;98833.84;3138922;28;20542;-65
2022/06/10 01:59:01;;;;;;;14.00;10.05;;;;;;;19.42;77.99;98836.25;3138849;28;20048;-65
2022/06/10 02:00:37;;;;;;;16.80;11.85;;;;;;;19.37;78.14;98835.88;3139247;28;20064;-65
2022/06/10 02:02:13;;;;;;;16.60;10.93;;;;;;;19.30;78.43;98832.16;3139161;28;20048;-65
2022/06/10 02:03:51;;;;;;;16.95;11.23;;;;;;;19.21;78.79;98833.06;3135926;28;20059;-65
2022/06/10 02:05:24;;;;;;;19.77;11.68;;;;;;;19.14;79.17;98826.69;3140344;28;20135;-65
2022/06/10 02:07:02;;;;;;;18.20;12.88;;;;;;;19.06;79.09;98824.81;3141167;28;20564;-65
2022/06/10 02:08:39;;;;;;;20.23;11.57;;;;;;;19.01;79.63;98821.78;3141454;28;20066;-65
2022/06/10 02:10:16;;;;;;;17.75;11.75;;;;;;;18.96;79.86;98821.38;3134352;28;20130;-65
2022/06/10 02:11:54;;;;;;;16.70;13.00;;;;;;;18.95;79.75;98823.19;3141545;28;20058;-65
2022/06/10 02:13:31;;;;;;;17.05;12.07;;;;;;;18.88;80.04;98816.84;3141144;28;20049;-64
2022/06/10 02:15:12;;;;;;;17.10;12.23;;;;;;;18.83;80.66;98816.44;3141229;28;20052;-64
2022/06/10 02:16:46;;;;;;;19.40;12.77;;;;;;;18.78;80.90;98822.19;3141434;28;20048;-64
2022/06/10 02:18:25;;;;;;;20.27;13.27;;;;;;;18.74;81.12;98823.41;3141435;28;20155;-64
2022/06/10 02:20:00;;;;;;;15.98;12.77;;;;;;;18.70;81.26;98824.66;3137464;28;20075;-65
2022/06/10 02:21:39;;;;;;;17.75;11.63;;;;;;;18.68;81.63;98821.34;3141548;28;20078;-65
2022/06/10 02:23:15;;;;;;;17.83;11.73;;;;;;;18.62;81.78;98820.09;3141350;28;20052;-65
2022/06/10 02:24:51;;;;;;;23.95;12.13;;;;;;;18.59;81.98;98819.56;3141077;28;20048;-64
2022/06/10 02:26:25;;;;;;;18.77;12.45;;;;;;;18.52;82.40;98826.41;3141383;28;20056;-65
2022/06/10 02:28:02;;;;;;;21.10;13.50;;;;;;;18.49;82.55;98821.41;3141357;28;20441;-64
2022/06/10 02:29:40;;;;;;;19.15;12.65;;;;;;;18.42;82.71;98815.88;3137160;28;20056;-64
2022/06/10 02:31:17;;;;;;;17.48;13.15;;;;;;;18.53;82.20;98833.31;3136391;28;20111;-65
2022/06/10 02:32:49;;;;;;;19.52;14.07;;;;;;;18.59;81.82;98833.56;3135889;28;20064;-65
2022/06/10 02:34:21;;;;;;;17.20;13.25;;;;;;;18.62;81.53;98833.28;3141028;28;20058;-64
2022/06/10 02:36:01;;;;;;;21.67;14.70;;;;;;;18.68;81.35;98842.44;3141380;28;20662;-64
2022/06/10 02:37:41;;;;;;;19.08;15.63;;;;;;;18.66;81.48;98849.66;3141138;28;20048;-65
2022/06/10 02:39:20;;;;;;;19.98;15.52;;;;;;;18.68;81.45;98852.16;3141061;28;20053;-65
2022/06/10 02:40:58;;;;;;;17.95;13.52;;;;;;;18.70;81.17;98845.75;3140837;28;20517;-64
2022/06/10 02:42:39;;;;;;;18.83;14.30;;;;;;;18.74;80.90;98843.69;3141170;28;20052;-64
2022/06/10 02:44:20;;;;;;;22.85;14.25;;;;;;;18.78;80.91;98850.31;3140938;28;20662;-64
2022/06/10 02:45:58;;;;;;;23.05;14.98;;;;;;;18.82;80.55;98851.72;3141122;28;20054;-64
2022/06/10 02:47:44;;;;;;;19.92;15.85;;;;;;;18.83;80.23;98862.13;3140919;28;20056;-65
2022/06/10 02:49:18;;;;;;;21.35;17.08;;;;;;;18.77;80.04;98851.31;3135742;28;20095;-65
2022/06/10 02:50:50;;;;;;;21.77;16.77;;;;;;;18.82;79.91;98876.28;3140861;28;20170;-65
2022/06/10 02:52:28;;;;;;;23.38;18.10;;;;;;;18.84;79.99;98873.50;3141096;28;20155;-65
2022/06/10 02:54:02;;;;;;;20.30;16.83;;;;;;;18.83;79.89;98872.66;3140661;28;20052;-64
2022/06/10 02:55:35;;;;;;;26.70;18.17;;;;;;;18.82;79.82;98860.47;3140944;28;20270;-65
2022/06/10 02:57:13;;;;;;;25.08;19.02;;;;;;;18.84;79.94;98870.84;3141056;28;20068;-64
2022/06/10 03:02:46;;;;;;;22.52;16.08;;;;;;;18.77;79.97;98873.25;3130811;28;20109;-65
2022/06/10 03:04:25;;;;;;;22.77;16.02;;;;;;;18.80;79.79;98880.88;3141184;28;20117;-65
2022/06/10 03:06:10;;;;;;;20.23;15.57;;;;;;;18.81;79.69;98882.56;3140948;28;20052;-65
2022/06/10 03:07:55;;;;;;;18.95;15.98;;;;;;;18.83;79.41;98885.84;3140689;28;20481;-65
2022/06/10 03:09:37;;;;;;;21.65;15.82;;;;;;;18.84;79.36;98878.75;3140869;28;20147;-65
2022/06/10 03:11:16;;;;;;;24.67;16.15;;;;;;;18.84;79.36;98879.63;3141763;28;20052;-65
2022/06/10 03:13:13;;;;;;;19.45;15.13;;;;;;;18.85;79.41;98876.00;3140703;28;20770;-64
2022/06/10 03:14:53;;;;;;;21.33;15.75;;;;;;;18.89;79.03;98878.34;3140589;28;20060;-65
2022/06/10 03:16:34;;;;;;;23.58;15.57;;;;;;;18.88;78.73;98879.34;3140239;28;20106;-65
2022/06/10 03:18:19;;;;;;;20.08;15.02;;;;;;;18.88;78.93;98885.44;3140530;28;20059;-64
2022/06/10 03:20:03;;;;;;;22.80;16.25;;;;;;;18.88;78.49;98888.06;3140758;28;20536;-64
2022/06/10 03:21:45;;;;;;;21.98;14.70;;;;;;;18.86;78.36;98887.38;3140676;28;20100;-65
2022/06/10 03:23:26;;;;;;;18.92;14.90;;;;;;;18.81;78.66;98882.56;3138935;28;20056;-65
2022/06/10 03:25:10;;;;;;;20.83;15.25;;;;;;;18.89;78.42;98892.38;3140686;28;20055;-65
2022/06/10 03:26:54;;;;;;;18.42;14.30;;;;;;;18.89;78.40;98892.38;3139796;28;20729;-65
2022/06/10 03:28:30;;;;;;;;;;;;;;;18.88;78.19;98903.91;3140781;28;20059;-65
2022/06/10 03:30:07;;;;;;;22.42;13.88;;;;;;;18.88;78.08;98906.53;3140855;28;19971;-65
2022/06/10 03:31:44;;;;;;;19.00;15.05;;;;;;;18.89;78.04;98905.56;3145033;28;20142;-65
2022/06/10 03:33:26;;;;;;;27.48;15.05;;;;;;;18.90;78.09;98909.00;3140541;28;20063;-65
2022/06/10 03:35:03;;;;;;;21.85;16.75;;;;;;;18.89;78.14;98910.00;3140140;28;20193;-65
2022/06/10 03:36:35;;;;;;;23.23;16.13;;;;;;;18.86;77.94;98909.31;3140421;28;20134;-65
2022/06/10 03:38:08;;;;;;;23.60;16.73;;;;;;;18.86;78.05;98909.31;3140593;28;20654;-66
2022/06/10 03:39:43;;;;;;;21.80;15.50;;;;;;;18.86;78.04;98919.84;3140288;28;20856;-65
2022/06/10 03:41:22;;;;;;;23.33;16.95;;;;;;;18.87;78.12;98915.41;3140543;28;20134;-65
2022/06/10 03:42:56;;;;;;;22.83;16.58;;;;;;;18.90;78.25;98919.56;3139835;28;20044;-65
2022/06/10 03:44:29;;;;;;;19.67;15.43;;;;;;;18.92;77.95;98923.72;3140333;28;20048;-64
2022/06/10 03:46:04;;;;;;;25.30;16.52;;;;;;;18.93;78.25;98924.56;3140606;28;20060;-64
2022/06/10 03:47:38;;;;;;;28.30;15.20;;;;;;;18.96;78.21;98921.63;3136601;28;20114;-65
2022/06/10 03:49:14;;;;;;;21.17;16.45;;;;;;;19.00;78.10;98925.66;3140406;28;20119;-65
2022/06/10 03:50:47;;;;;;;21.60;16.38;;;;;;;19.00;78.14;98920.38;3139679;28;20057;-65
2022/06/10 03:52:23;;;;;;;25.38;16.42;;;;;;;19.05;78.44;98923.44;3140385;28;20506;-65
2022/06/10 03:53:56;;;;;;;21.30;15.50;;;;;;;19.04;78.45;98919.94;3140315;28;20483;-65
2022/06/10 03:55:29;;;;;;;25.55;16.42;;;;;;;18.99;78.43;98909.00;3135117;28;20117;-65
2022/06/10 03:57:01;;;;;;;21.90;16.15;;;;;;;19.10;78.22;98926.44;3140034;28;20513;-65
2022/06/10 03:58:33;;;;;;;21.92;15.57;;;;;;;19.13;77.98;98915.59;3139958;28;20049;-65
2022/06/10 04:00:07;;;;;;;20.60;16.00;;;;;;;19.16;77.51;98914.47;3140174;28;20052;-65
2022/06/10 04:01:39;;;;;;;26.88;16.77;;;;;;;19.18;77.45;98920.44;3137675;28;20673;-65
2022/06/10 04:03:11;;;;;;;20.50;16.10;;;;;;;19.17;77.63;98922.25;3140029;28;20177;-65
2022/06/10 04:04:44;;;;;;;21.58;15.35;;;;;;;19.17;77.57;98914.34;3140259;28;20619;-65
2022/06/10 04:06:16;;;;;;;23.88;17.33;;;;;;;19.07;78.05;98922.28;3135401;28;20060;-65
2022/06/10 04:07:48;;;;;;;28.25;17.85;;;;;;;19.01;78.25;98916.75;3140002;28;20048;-65
2022/06/10 04:09:20;;;;;;;21.23;16.77;;;;;;;19.03;78.13;98910.38;3139866;28;20060;-65
2022/06/10 04:10:53;;;;;;;21.73;18.00;;;;;;;19.06;78.04;98915.34;3139774;28;20078;-65
2022/06/10 04:12:26;;;;;;;22.70;17.20;;;;;;;19.09;77.86;98914.22;3139906;28;20052;-65
2022/06/10 04:13:58;;;;;;;21.77;17.73;;;;;;;19.06;77.88;98915.34;3137338;28;20052;-64
2022/06/10 04:15:32;;;;;;;21.60;17.00;;;;;;;19.03;78.12;98913.00;3139801;28;20048;-65
2022/06/10 04:17:04;;;;;;;21.92;16.83;;;;;;;19.08;77.98;98912.59;3139928;28;20139;-65
2022/06/10 04:18:37;;;;;;;27.30;18.05;;;;;;;19.07;77.91;98903.81;3140053;28;20059;-65
2022/06/10 04:20:15;;;;;;;25.25;19.80;;;;;;;19.11;78.14;98912.28;3139844;28;20159;-65
2022/06/10 04:21:47;;;;;;;32.50;19.05;;;;;;;19.13;77.73;98925.31;3140008;28;20131;-65
2022/06/10 04:23:19;;;;;;;23.55;17.85;;;;;;;19.17;77.79;98922.25;3140100;28;20081;-65
2022/06/10 04:24:51;;;;;;;23.95;18.05;;;;;;;19.17;77.70;98917.00;3139867;28;20115;-65
2022/06/10 04:26:25;;;;;;;31.08;19.27;;;;;;;19.22;77.53;98913.88;3140029;28;20509;-65
2022/06/10 04:27:56;;;;;;;;;;;;;;;19.25;77.30;98914.44;3139686;28;20049;-65
2022/06/10 04:29:28;;;;;;;27.77;19.73;;;;;;;19.29;77.13;98923.72;3140028;28;19924;-66
2022/06/10 04:31:00;;;;;;;27.55;20.38;;;;;;;19.28;76.86;98922.06;3142378;28;20307;-63
2022/06/10 04:32:32;;;;;;;25.55;20.05;;;;;;;19.29;76.49;98918.44;3139898;28;20573;-64
2022/06/10 04:34:04;;;;;;;24.00;19.58;;;;;;;19.29;76.89;98915.81;3139748;28;20052;-64
2022/06/10 04:35:37;;;;;;;23.02;18.33;;;;;;;19.29;76.85;98913.16;3139992;28;20044;-64
2022/06/10 04:37:11;;;;;;;;;;;;;;;19.22;77.31;98911.25;3141221;28;20057;-65
2022/06/10 04:38:43;;;;;;;20.38;16.08;;;;;;;19.25;77.04;98918.88;3138264;28;20299;-65
2022/06/10 04:40:17;;;;;;;22.58;16.10;;;;;;;19.27;76.77;98912.47;3139703;28;20052;-65
2022/06/10 04:41:51;;;;;;;24.60;16.38;;;;;;;19.33;76.58;98927.72;3140066;28;20057;-65
2022/06/10 04:43:22;;;;;;;;;;;;;;;19.31;76.61;98926.22;3137463;28;20052;-64
2022/06/10 04:44:55;;;;;;;23.83;15.93;;;;;;;19.28;76.79;98924.69;3139587;28;20035;-65
2022/06/10 04:46:31;;;;;;;22.42;15.32;;;;;;;19.30;76.46;98933.31;3139407;28;20044;-65
2022/06/10 04:48:03;;;;;;;26.90;16.42;;;;;;;19.30;76.57;98925.38;3139822;28;20059;-64
2022/06/10 04:49:36;;;;;;;21.23;16.52;;;;;;;19.27;76.57;98917.75;3139575;28;20056;-65
2022/06/10 04:51:08;;;;;;;26.17;15.45;;;;;;;19.33;76.40;98925.09;3138969;28;20528;-64
2022/06/10 04:52:39;;;;;;;24.75;16.55;;;;;;;19.34;76.50;98925.91;3139600;28;20584;-64
2022/06/10 04:54:11;;;;;;;22.70;16.13;;;;;;;19.41;76.30;98924.38;3140517;28;20232;-64
2022/06/10 04:55:43;;;;;;;28.25;17.15;;;;;;;19.42;76.12;98935.75;3139753;28;20493;-63
2022/06/10 04:57:17;;;;;;;23.38;17.40;;;;;;;19.42;76.33;98925.19;3139653;28;20125;-63
2022/06/10 04:58:47;;;;;;;24.45;16.83;;;;;;;19.37;76.56;98933.53;3139338;28;20048;-64
2022/06/10 05:00:23;;;;;;;28.10;17.83;;;;;;;19.36;76.64;98925.78;3139618;28;20152;-66
2022/06/10 05:01:55;;;;;;;30.67;17.27;;;;;;;19.41;76.57;98932.28;3134830;28;20060;-65
2022/06/10 05:03:28;;;;;;;23.98;17.38;;;;;;;19.42;76.48;98931.31;3139410;28;20083;-66
2022/06/10 05:04:59;;;;;;;24.85;17.98;;;;;;;19.41;76.59;98937.56;3139593;28;20056;-64
2022/06/10 05:06:31;;;;;;;25.65;18.23;;;;;;;19.44;76.78;98939.09;3134660;28;20056;-63
2022/06/10 05:08:04;;;;;;;24.88;18.02;;;;;;;19.40;76.83;98935.06;3134522;28;20238;-64
2022/06/10 05:09:36;;;;;;;26.08;18.42;;;;;;;19.44;76.76;98947.84;3134753;28;20056;-64
2022/06/10 05:11:08;;;;;;;23.38;17.70;;;;;;;19.44;76.37;98947.84;3134588;28;20056;-61
2022/06/10 05:12:44;;;;;;;23.63;18.80;;;;;;;19.42;76.42;98956.88;3134285;28;20052;-65
2022/06/10 05:14:16;;;;;;;25.80;18.38;;;;;;;19.37;76.62;98954.66;3134298;28;20611;-66
2022/06/10 05:15:48;;;;;;;24.92;17.92;;;;;;;19.38;76.89;98955.53;3135481;28;20053;-64
2022/06/10 05:17:21;;;;;;;25.42;17.70;;;;;;;19.28;76.69;98937.06;3134737;28;20053;-63
2022/06/10 05:18:54;;;;;;;28.35;19.15;;;;;;;19.35;76.92;98947.91;3134690;28;20048;-64
2022/06/10 05:20:28;;;;;;;35.70;24.90;;;;;;;19.28;77.18;98929.97;3135455;28;20095;-63
2022/06/10 05:22:00;;;;;;;32.13;22.65;;;;;;;19.43;76.98;98950.59;3135041;28;20524;-65
2022/06/10 05:23:32;;;;;;;25.90;20.35;;;;;;;19.48;76.56;98959.75;3135558;28;20569;-65
2022/06/10 05:25:05;;;;;;;25.80;19.05;;;;;;;19.50;76.46;98965.72;3134907;28;20346;-64
2022/06/10 05:26:37;;;;;;;23.95;18.10;;;;;;;19.49;76.22;98961.44;3134439;28;20175;-63
2022/06/10 05:28:12;;;;;;;27.95;18.48;;;;;;;19.47;75.99;98960.75;3134987;28;20148;-63
2022/06/10 05:29:44;;;;;;;25.80;18.13;;;;;;;19.48;76.22;98958.94;3134695;28;20087;-65
2022/06/10 05:31:16;;;;;;;24.50;19.25;;;;;;;19.48;76.14;98958.94;3135928;28;20053;-65
2022/06/10 05:32:49;;;;;;;24.92;18.88;;;;;;;19.50;75.90;98959.63;3135135;28;20137;-64
2022/06/10 05:36:12;;;;;;;29.55;22.13;;;;;;;19.52;76.14;98953.22;3134976;28;20487;-66
2022/06/10 05:37:45;;;;;;;27.73;20.30;;;;;;;19.49;76.72;98963.22;3140087;28;20052;-67
2022/06/10 05:39:17;;;;;;;34.97;24.10;;;;;;;19.43;77.11;98962.03;3139759;28;20052;-66
2022/06/10 05:40:50;;;;;;;27.85;20.17;;;;;;;19.44;77.10;98965.50;3141422;28;20052;-66
2022/06/10 05:42:21;;;;;;;25.65;19.63;;;;;;;19.48;77.02;98957.13;3141780;28;20518;-64
2022/06/10 05:43:54;;;;;;;25.15;19.05;;;;;;;19.53;76.92;98964.63;3141879;28;20052;-63
2022/06/10 05:45:27;;;;;;;27.42;18.15;;;;;;;19.55;76.74;98968.78;3141885;28;20137;-61
2022/06/10 05:47:00;;;;;;;27.27;19.80;;;;;;;19.58;76.80;98972.94;3141491;28;20524;-63
2022/06/10 05:48:32;;;;;;;25.60;18.35;;;;;;;19.60;76.62;98964.84;3141779;28;20143;-63
2022/06/10 05:50:08;;;;;;;24.02;18.77;;;;;;;19.59;76.29;98963.19;3135607;28;20856;-63
2022/06/10 05:51:40;;;;;;;26.42;19.38;;;;;;;19.64;76.36;98963.56;3141759;28;20059;-63
2022/06/10 05:53:15;;;;;;;23.02;17.70;;;;;;;19.63;76.20;98960.09;3141636;28;20056;-62
2022/06/10 05:54:49;;;;;;;24.40;18.60;;;;;;;19.68;76.66;98967.63;3141980;28;20056;-63
2022/06/10 05:56:21;;;;;;;22.08;16.33;;;;;;;19.70;76.36;98961.22;3141962;28;20051;-63
2022/06/10 05:57:53;;;;;;;20.17;17.13;;;;;;;19.75;76.37;98963.41;3141333;28;20079;-64
2022/06/10 05:59:29;;;;;;;23.42;16.45;;;;;;;19.80;76.12;98955.03;3141858;28;20056;-66
2022/06/10 06:01:00;;;;;;;27.60;16.77;;;;;;;19.85;76.14;98952.78;3136895;28;20132;-64
2022/06/10 06:02:32;;;;;;;21.50;16.05;;;;;;;19.93;75.99;98956.31;3138580;28;20052;-65
2022/06/10 06:04:05;;;;;;;23.50;15.50;;;;;;;19.98;75.69;98948.78;3141610;28;20091;-65
2022/06/10 06:05:36;;;;;;;19.90;15.52;;;;;;;20.05;75.23;98951.66;3141536;28;20067;-63
2022/06/10 06:07:09;;;;;;;19.60;15.40;;;;;;;20.05;75.26;98949.00;3141173;28;20106;-65
2022/06/10 06:08:41;;;;;;;20.23;15.15;;;;;;;20.05;75.13;98948.19;3141734;28;20105;-65
2022/06/10 06:10:15;;;;;;;22.70;16.83;;;;;;;20.08;75.06;98953.16;3141614;28;20056;-62
2022/06/10 06:11:48;;;;;;;22.27;15.45;;;;;;;20.12;75.23;98952.72;3141667;28;20510;-62
2022/06/10 06:13:20;;;;;;;24.55;16.05;;;;;;;20.12;74.86;98951.91;3141508;28;20147;-62
2022/06/10 06:14:53;;;;;;;23.77;16.90;;;;;;;20.15;75.00;98954.25;3141668;28;20441;-62
2022/06/10 06:16:25;;;;;;;21.83;15.25;;;;;;;20.18;74.75;98949.47;3141682;28;20055;-61
2022/06/10 06:17:57;;;;;;;22.17;17.20;;;;;;;20.21;74.88;98951.81;3141775;28;20056;-62
2022/06/10 06:19:31;;;;;;;21.23;15.05;;;;;;;20.28;74.50;98951.22;3141185;28;20048;-64
2022/06/10 06:21:03;;;;;;;20.80;14.25;;;;;;;20.28;74.33;98957.31;3141437;28;20388;-62
2022/06/10 06:22:35;;;;;;;25.02;14.23;;;;;;;20.31;73.86;98950.91;3139271;28;20249;-62
2022/06/10 06:24:08;;;;;;;21.90;14.27;;;;;;;20.38;73.64;98962.53;3141416;28;20506;-63
2022/06/10 06:25:40;;;;;;;19.52;14.27;;;;;;;20.41;73.48;98964.88;3141387;28;20504;-62
2022/06/10 06:27:16;;;;;;;18.25;14.73;;;;;;;20.49;73.09;98974.69;3141091;28;20063;-64
2022/06/10 06:28:48;;;;;;;25.02;13.60;;;;;;;20.51;73.08;98973.56;3141111;28;20048;-64
2022/06/10 06:30:30;;;;;;;33.15;14.60;;;;;;;20.55;72.83;98974.09;3141991;28;20080;-64
2022/06/10 06:32:02;;;;;;;19.70;14.98;;;;;;;20.57;72.63;98974.78;3137535;28;20068;-63
2022/06/10 06:33:34;;;;;;;19.05;14.50;;;;;;;20.60;72.18;98974.47;3141403;28;20067;-62
2022/06/10 06:35:07;;;;;;;25.48;15.77;;;;;;;20.61;72.22;98976.13;3141368;28;20052;-62
2022/06/10 06:36:45;;;;;;;24.48;14.60;;;;;;;20.64;72.17;98971.38;3141444;28;20060;-61
2022/06/10 06:38:17;;;;;;;18.92;14.65;;;;;;;20.66;71.84;98974.69;3141253;28;20185;-63
2022/06/10 06:39:49;;;;;;;19.90;14.40;;;;;;;20.59;71.50;98954.31;3140790;28;20048;-61
2022/06/10 06:41:21;;;;;;;19.77;14.23;;;;;;;20.72;70.97;98983.84;3141250;28;20052;-62
2022/06/10 06:42:53;;;;;;;22.50;15.88;;;;;;;20.72;71.01;98975.06;3140995;28;20052;-63
2022/06/10 06:44:26;;;;;;;22.40;15.40;;;;;;;20.73;71.34;98984.66;3139794;28;20110;-62
2022/06/10 06:45:59;;;;;;;22.58;15.48;;;;;;;20.74;70.97;98981.88;3141231;28;20056;-63
2022/06/10 06:47:31;;;;;;;22.33;15.20;;;;;;;20.76;70.94;98989.66;3140646;28;20055;-63
2022/06/10 06:49:05;;;;;;;20.85;15.18;;;;;;;20.73;70.86;98984.66;3141154;28;20048;-63
2022/06/10 06:50:41;;;;;;;19.40;15.05;;;;;;;20.74;71.03;98994.28;3138323;28;20053;-64
2022/06/10 06:52:13;;;;;;;20.65;14.88;;;;;;;20.69;70.78;98997.38;3137512;28;20566;-63
2022/06/10 06:53:45;;;;;;;32.95;15.52;;;;;;;20.67;71.14;98989.59;3140794;28;20602;-64
2022/06/10 06:55:17;;;;;;;22.98;15.85;;;;;;;20.65;71.13;98991.56;3140880;28;20114;-63
2022/06/10 06:56:49;;;;;;;21.73;16.10;;;;;;;20.63;71.12;98995.34;3140306;28;20052;-62
2022/06/10 06:58:21;;;;;;;25.13;15.38;;;;;;;20.59;71.22;98988.72;3140687;28;20052;-64
2022/06/10 06:59:54;;;;;;;22.52;16.17;;;;;;;20.62;71.26;98999.81;3140979;28;20056;-62
2022/06/10 07:01:27;;;;;;;22.87;16.37;;;;;;;20.66;71.06;99005.63;3137821;28;20540;-62
2022/06/10 07:02:59;;;;;;;23.88;16.95;;;;;;;20.67;71.32;99000.19;3140045;28;22452;-64
2022/06/10 07:04:31;;;;;;;23.85;17.65;;;;;;;20.67;71.30;98991.41;3138938;28;20419;-64
2022/06/10 07:06:03;;;;;;;28.80;18.27;;;;;;;20.69;71.11;98989.44;3140778;28;20145;-64
2022/06/10 07:07:35;;;;;;;25.95;16.83;;;;;;;20.71;71.38;98986.66;3140349;28;20465;-63
2022/06/10 07:09:07;;;;;;;22.95;18.05;;;;;;;20.75;71.21;98985.34;3140210;28;20055;-62
2022/06/10 07:10:39;;;;;;;24.08;17.40;;;;;;;20.73;71.21;98976.72;3141161;28;20052;-62
2022/06/10 07:12:11;;;;;;;24.23;18.15;;;;;;;20.78;71.47;98971.81;3140891;28;20052;-61
2022/06/10 07:13:43;;;;;;;28.30;17.15;;;;;;;20.82;71.19;98973.16;3141612;28;20060;-61
2022/06/10 07:15:15;;;;;;;23.13;16.33;;;;;;;20.87;71.34;98960.28;3141786;28;20049;-61
2022/06/10 07:16:51;;;;;;;21.30;15.73;;;;;;;20.95;71.33;98968.28;3140912;28;20052;-62
2022/06/10 07:18:23;;;;;;;22.88;16.90;;;;;;;21.00;70.86;98960.72;3141004;28;20624;-62
2022/06/10 07:19:58;;;;;;;24.65;17.73;;;;;;;21.02;70.65;98971.97;3140644;28;20494;-62
2022/06/10 07:21:30;;;;;;;25.25;15.82;;;;;;;21.10;70.51;98977.31;3140719;28;20090;-62
2022/06/10 07:23:03;;;;;;;23.80;17.23;;;;;;;21.20;69.99;98976.38;3140538;28;20048;-62
2022/06/10 07:24:35;;;;;;;27.48;18.50;;;;;;;21.24;69.97;98983.84;3140753;28;20056;-64
2022/06/10 07:26:06;;;;;;;23.05;17.88;;;;;;;21.34;70.44;98981.06;3140395;28;20147;-62
2022/06/10 07:27:38;;;;;;;27.52;17.20;;;;;;;21.45;69.90;98985.31;3136187;28;20110;-62